createdAt,value
2018-03-04T00:00:48.083Z,22.90
2018-03-04T00:01:48.101Z,24.00
2018-03-04T00:02:48.111Z,23.40
2018-03-04T00:03:48.122Z,23.60
2018-03-04T00:04:48.137Z,22.50
2018-03-04T00:05:48.147Z,22.40
2018-03-04T00:06:48.163Z,23.20
2018-03-04T00:07:48.176Z,23.10
2018-03-04T00:08:48.181Z,23.10
2018-03-04T00:09:48.193Z,22.90
2018-03-04T00:10:48.207Z,22.50
2018-03-04T00:11:48.218Z,22.80
2018-03-04T00:12:48.233Z,23.90
2018-03-04T00:13:48.246Z,23.50
2018-03-04T00:14:48.258Z,24.00
2018-03-04T00:15:48.267Z,23.20
2018-03-04T00:16:48.281Z,23.40
2018-03-04T00:17:48.291Z,23.40
2018-03-04T00:18:48.306Z,22.50
2018-03-04T00:19:48.319Z,23.70
2018-03-04T00:20:48.326Z,23.20
2018-03-04T00:21:48.340Z,22.40
2018-03-04T00:22:48.355Z,23.20
2018-03-04T00:23:48.368Z,23.40
2018-03-04T00:24:48.377Z,23.20
2018-03-04T00:25:48.387Z,23.30
2018-03-04T00:26:48.401Z,22.80
2018-03-04T00:27:48.411Z,23.50
2018-03-04T00:28:48.427Z,23.50
2018-03-04T00:29:48.436Z,23.20
2018-03-04T00:30:48.456Z,22.60
2018-03-04T00:31:48.459Z,22.50
2018-03-04T00:32:48.478Z,22.70
2018-03-04T00:33:48.485Z,22.50
2018-03-04T00:34:48.497Z,23.50
2018-03-04T00:35:48.510Z,22.70
2018-03-04T00:36:48.525Z,23.60
2018-03-04T00:37:48.535Z,22.80
2018-03-04T00:38:48.547Z,23.50
2018-03-04T00:39:48.563Z,22.80
2018-03-04T00:40:48.570Z,22.90
2018-03-04T00:41:48.580Z,23.80
2018-03-04T00:42:48.594Z,22.50
2018-03-04T00:43:48.609Z,23.90
2018-03-04T00:44:48.614Z,22.00
2018-03-04T00:45:48.629Z,23.10
2018-03-04T00:46:48.645Z,24.30
2018-03-04T00:47:48.659Z,22.40
2018-03-04T00:48:48.674Z,22.70
2018-03-04T00:49:48.678Z,23.60
2018-03-04T00:50:48.692Z,23.60
2018-03-04T00:51:48.699Z,22.80
2018-03-04T00:52:48.714Z,23.10
2018-03-04T00:53:48.724Z,23.40
2018-03-04T00:54:48.738Z,23.50
2018-03-04T00:55:48.752Z,22.90
2018-03-04T00:56:48.763Z,23.40
2018-03-04T00:57:48.776Z,22.60
2018-03-04T00:58:48.787Z,23.40
2018-03-04T00:59:48.799Z,23.10
2018-03-04T01:00:48.809Z,22.70
2018-03-04T01:01:48.817Z,23.60
2018-03-04T01:02:48.837Z,23.60
2018-03-04T01:03:48.843Z,24.20
2018-03-04T01:04:48.865Z,23.00
2018-03-04T01:05:48.872Z,23.50
2018-03-04T01:06:48.878Z,23.70
2018-03-04T01:07:48.896Z,24.30
2018-03-04T01:08:48.903Z,24.50
2018-03-04T01:09:48.913Z,25.10
2018-03-04T01:10:48.930Z,24.10
2018-03-04T01:11:48.938Z,24.00
2018-03-04T01:12:48.952Z,24.00
2018-03-04T01:13:48.966Z,24.00
2018-03-04T01:14:48.977Z,23.30
2018-03-04T01:15:48.990Z,22.90
2018-03-04T01:16:48.996Z,23.00
2018-03-04T01:17:49.010Z,24.20
2018-03-04T01:18:49.022Z,23.10
2018-03-04T01:19:49.035Z,24.40
2018-03-04T01:20:49.046Z,23.80
2018-03-04T01:21:49.057Z,24.00
2018-03-04T01:22:49.072Z,23.70
2018-03-04T01:23:49.083Z,24.50
2018-03-04T01:24:49.097Z,24.30
2018-03-04T01:25:49.106Z,23.30
2018-03-04T01:26:49.119Z,23.90
2018-03-04T01:27:49.131Z,24.70
2018-03-04T01:28:49.140Z,23.60
2018-03-04T01:29:49.156Z,24.40
2018-03-04T01:30:49.162Z,23.30
2018-03-04T01:31:49.177Z,24.60
2018-03-04T01:32:49.191Z,24.00
2018-03-04T01:33:49.201Z,24.60
2018-03-04T01:34:49.212Z,24.70
2018-03-04T01:35:49.232Z,23.50
2018-03-04T01:36:49.246Z,24.30
2018-03-04T01:37:49.249Z,23.70
2018-03-04T01:38:49.264Z,24.30
2018-03-04T01:39:49.273Z,23.00
2018-03-04T01:40:49.286Z,24.20
2018-03-04T01:41:49.295Z,24.40
2018-03-04T01:42:49.304Z,25.30
2018-03-04T01:43:49.321Z,24.90
2018-03-04T01:44:49.330Z,24.50
2018-03-04T01:45:49.340Z,24.80
2018-03-04T01:46:49.357Z,24.80
2018-03-04T01:47:49.372Z,24.20
2018-03-04T01:48:49.380Z,23.70
2018-03-04T01:49:49.393Z,24.30
2018-03-04T01:50:49.405Z,24.40
2018-03-04T01:51:49.429Z,24.30
2018-03-04T01:52:49.434Z,24.80
2018-03-04T01:53:49.440Z,24.50
2018-03-04T01:54:49.453Z,25.00
2018-03-04T01:55:49.464Z,25.70
2018-03-04T01:56:49.474Z,24.30
2018-03-04T01:57:49.485Z,24.30
2018-03-04T01:58:49.502Z,25.30
2018-03-04T01:59:49.517Z,24.70
2018-03-04T02:00:49.524Z,24.70
2018-03-04T02:01:49.546Z,24.70
2018-03-04T02:02:49.546Z,24.70
2018-03-04T02:03:49.562Z,25.70
2018-03-04T02:04:49.572Z,24.10
2018-03-04T02:05:49.587Z,24.80
2018-03-04T02:06:49.594Z,24.50
2018-03-04T02:07:49.604Z,25.70
2018-03-04T02:08:49.619Z,25.10
2018-03-04T02:09:49.630Z,25.60
2018-03-04T02:10:49.646Z,25.00
2018-03-04T02:11:49.653Z,25.50
2018-03-04T02:12:49.666Z,24.70
2018-03-04T02:13:49.679Z,25.50
2018-03-04T02:14:49.691Z,25.60
2018-03-04T02:15:49.703Z,26.10
2018-03-04T02:16:49.721Z,26.20
2018-03-04T02:17:49.727Z,24.40
2018-03-04T02:18:49.740Z,25.50
2018-03-04T02:19:49.748Z,25.60
2018-03-04T02:20:49.760Z,25.80
2018-03-04T02:21:49.773Z,26.00
2018-03-04T02:22:49.786Z,25.50
2018-03-04T02:23:49.797Z,26.10
2018-03-04T02:24:49.807Z,26.90
2018-03-04T02:25:49.818Z,25.60
2018-03-04T02:26:49.831Z,26.00
2018-03-04T02:27:49.841Z,25.00
2018-03-04T02:28:49.859Z,26.00
2018-03-04T02:29:49.868Z,25.70
2018-03-04T02:30:49.886Z,26.10
2018-03-04T02:31:49.898Z,26.00
2018-03-04T02:32:49.903Z,26.10
2018-03-04T02:33:49.916Z,25.20
2018-03-04T02:34:49.928Z,26.80
2018-03-04T02:35:49.936Z,25.60
2018-03-04T02:36:49.956Z,25.50
2018-03-04T02:37:49.962Z,26.60
2018-03-04T02:38:49.970Z,26.50
2018-03-04T02:39:49.987Z,26.40
2018-03-04T02:40:49.998Z,27.30
2018-03-04T02:41:50.009Z,26.30
2018-03-04T02:42:50.024Z,26.40
2018-03-04T02:43:50.039Z,26.20
2018-03-04T02:44:50.051Z,26.80
2018-03-04T02:45:50.057Z,26.50
2018-03-04T02:46:50.066Z,28.00
2018-03-04T02:47:50.078Z,27.40
2018-03-04T02:48:50.092Z,27.00
2018-03-04T02:49:50.106Z,26.80
2018-03-04T02:50:50.120Z,27.20
2018-03-04T02:51:50.126Z,27.20
2018-03-04T02:52:50.140Z,27.40
2018-03-04T02:53:50.151Z,27.60
2018-03-04T02:54:50.165Z,27.20
2018-03-04T02:55:50.185Z,27.80
2018-03-04T02:56:50.190Z,27.80
2018-03-04T02:57:50.195Z,26.70
2018-03-04T02:58:50.211Z,27.80
2018-03-04T02:59:50.228Z,28.80
2018-03-04T03:00:50.236Z,27.70
2018-03-04T03:01:50.249Z,28.00
2018-03-04T03:02:50.262Z,28.30
2018-03-04T03:03:50.266Z,27.50
2018-03-04T03:04:50.284Z,27.30
2018-03-04T03:05:50.288Z,27.80
2018-03-04T03:06:50.310Z,27.50
2018-03-04T03:07:50.319Z,27.70
2018-03-04T03:08:50.334Z,28.60
2018-03-04T03:09:50.340Z,27.40
2018-03-04T03:10:50.354Z,28.10
2018-03-04T03:11:50.391Z,28.20
2018-03-04T03:12:50.376Z,28.80
2018-03-04T03:13:50.383Z,28.90
2018-03-04T03:14:50.403Z,28.20
2018-03-04T03:15:50.412Z,28.30
2018-03-04T03:16:50.427Z,27.70
2018-03-04T03:17:50.435Z,28.40
2018-03-04T03:18:50.452Z,28.40
2018-03-04T03:19:50.454Z,28.20
2018-03-04T03:20:50.471Z,28.40
2018-03-04T03:21:50.479Z,29.20
2018-03-04T03:22:50.494Z,28.20
2018-03-04T03:23:50.508Z,29.00
2018-03-04T03:24:50.514Z,28.50
2018-03-04T03:25:50.527Z,29.30
2018-03-04T03:26:50.543Z,29.40
2018-03-04T03:27:50.556Z,27.60
2018-03-04T03:28:50.563Z,28.90
2018-03-04T03:29:50.574Z,29.20
2018-03-04T03:30:50.589Z,28.90
2018-03-04T03:31:50.600Z,28.40
2018-03-04T03:32:50.613Z,29.00
2018-03-04T03:33:50.622Z,29.30
2018-03-04T03:34:50.636Z,28.90
2018-03-04T03:35:50.647Z,29.00
2018-03-04T03:36:50.666Z,29.30
2018-03-04T03:37:50.672Z,29.90
2018-03-04T03:38:50.683Z,29.10
2018-03-04T03:39:50.697Z,28.60
2018-03-04T03:40:50.708Z,29.00
2018-03-04T03:41:50.717Z,29.00
2018-03-04T03:42:50.731Z,28.50
2018-03-04T03:43:50.746Z,29.20
2018-03-04T03:44:50.752Z,29.00
2018-03-04T03:45:50.763Z,28.80
2018-03-04T03:46:50.780Z,29.70
2018-03-04T03:47:50.793Z,29.70
2018-03-04T03:48:50.802Z,28.70
2018-03-04T03:49:50.814Z,28.90
2018-03-04T03:50:50.827Z,29.80
2018-03-04T03:51:50.839Z,28.60
2018-03-04T03:52:50.847Z,29.20
2018-03-04T03:53:50.861Z,28.70
2018-03-04T03:54:50.875Z,29.40
2018-03-04T03:55:50.886Z,30.00
2018-03-04T03:56:50.900Z,30.30
2018-03-04T03:57:50.906Z,29.90
2018-03-04T03:58:50.920Z,29.60
2018-03-04T03:59:50.930Z,29.00
2018-03-04T04:00:50.941Z,29.60
2018-03-04T04:01:50.952Z,29.50
2018-03-04T04:02:50.965Z,30.40
2018-03-04T04:03:50.984Z,29.20
2018-03-04T04:04:50.987Z,29.20
2018-03-04T04:05:51.005Z,29.80
2018-03-04T04:06:51.011Z,30.20
2018-03-04T04:07:51.023Z,29.00
2018-03-04T04:08:51.037Z,29.60
2018-03-04T04:09:51.050Z,30.20
2018-03-04T04:10:51.063Z,29.60
2018-03-04T04:11:51.074Z,29.60
2018-03-04T04:12:51.085Z,29.50
2018-03-04T04:13:51.095Z,30.20
2018-03-04T04:14:51.116Z,29.80
2018-03-04T04:15:51.121Z,29.30
2018-03-04T04:16:51.133Z,30.20
2018-03-04T04:17:51.143Z,30.80
2018-03-04T04:18:51.158Z,29.00
2018-03-04T04:19:51.166Z,31.30
2018-03-04T04:20:51.180Z,30.10
2018-03-04T04:21:51.194Z,30.10
2018-03-04T04:22:51.202Z,29.40
2018-03-04T04:23:51.215Z,30.50
2018-03-04T04:24:51.224Z,30.60
2018-03-04T04:25:51.238Z,31.00
2018-03-04T04:26:51.250Z,29.50
2018-03-04T04:27:51.264Z,30.80
2018-03-04T04:28:51.275Z,30.50
2018-03-04T04:29:51.284Z,31.40
2018-03-04T04:30:51.298Z,32.30
2018-03-04T04:31:51.341Z,30.70
2018-03-04T04:32:51.324Z,31.20
2018-03-04T04:33:51.338Z,30.60
2018-03-04T04:34:51.344Z,30.90
2018-03-04T04:35:51.359Z,30.70
2018-03-04T04:36:51.370Z,31.20
2018-03-04T04:37:51.379Z,30.10
2018-03-04T04:38:51.394Z,30.90
2018-03-04T04:39:51.410Z,30.40
2018-03-04T04:40:51.420Z,30.30
2018-03-04T04:41:51.428Z,31.10
2018-03-04T04:42:51.443Z,30.80
2018-03-04T04:43:51.459Z,32.00
2018-03-04T04:44:51.471Z,31.10
2018-03-04T04:45:51.484Z,31.00
2018-03-04T04:46:51.491Z,30.90
2018-03-04T04:47:51.504Z,30.70
2018-03-04T04:48:51.517Z,31.00
2018-03-04T04:49:51.528Z,30.90
2018-03-04T04:50:51.544Z,31.40
2018-03-04T04:51:51.552Z,31.10
2018-03-04T04:52:51.570Z,32.20
2018-03-04T04:53:51.618Z,31.00
2018-03-04T04:54:51.595Z,31.70
2018-03-04T04:55:51.605Z,32.00
2018-03-04T04:56:51.615Z,32.50
2018-03-04T04:57:51.631Z,31.10
2018-03-04T04:58:51.637Z,31.20
2018-03-04T04:59:51.653Z,32.00
2018-03-04T05:00:51.662Z,31.70
2018-03-04T05:01:51.672Z,31.20
2018-03-04T05:02:51.691Z,31.50
2018-03-04T05:03:51.703Z,32.20
2018-03-04T05:04:51.711Z,32.40
2018-03-04T05:05:51.721Z,31.90
2018-03-04T05:06:51.736Z,31.90
2018-03-04T05:07:51.745Z,30.90
2018-03-04T05:08:51.762Z,32.10
2018-03-04T05:09:51.777Z,32.30
2018-03-04T05:10:51.787Z,32.90
2018-03-04T05:11:51.801Z,32.20
2018-03-04T05:12:51.809Z,32.40
2018-03-04T05:13:51.823Z,32.80
2018-03-04T05:14:51.834Z,32.10
2018-03-04T05:15:51.850Z,31.70
2018-03-04T05:16:51.863Z,32.90
2018-03-04T05:17:51.872Z,33.00
2018-03-04T05:18:51.885Z,32.50
2018-03-04T05:19:51.897Z,32.60
2018-03-04T05:20:51.908Z,32.40
2018-03-04T05:21:51.922Z,31.60
2018-03-04T05:22:51.930Z,31.50
2018-03-04T05:23:51.945Z,33.00
2018-03-04T05:24:51.955Z,32.20
2018-03-04T05:25:51.971Z,33.20
2018-03-04T05:26:51.982Z,33.10
2018-03-04T05:27:51.993Z,31.80
2018-03-04T05:28:52.006Z,33.00
2018-03-04T05:29:52.018Z,32.90
2018-03-04T05:30:52.030Z,33.00
2018-03-04T05:31:52.044Z,32.20
2018-03-04T05:32:52.057Z,32.60
2018-03-04T05:33:52.065Z,32.30
2018-03-04T05:34:52.079Z,32.40
2018-03-04T05:35:52.093Z,32.30
2018-03-04T05:36:52.107Z,33.20
2018-03-04T05:37:52.115Z,32.40
2018-03-04T05:38:52.126Z,33.10
2018-03-04T05:39:52.140Z,32.40
2018-03-04T05:40:52.155Z,33.20
2018-03-04T05:41:52.160Z,33.30
2018-03-04T05:42:52.177Z,32.50
2018-03-04T05:43:52.192Z,32.70
2018-03-04T05:44:52.212Z,32.50
2018-03-04T05:45:52.208Z,32.60
2018-03-04T05:46:52.229Z,32.40
2018-03-04T05:47:52.234Z,32.10
2018-03-04T05:48:52.246Z,33.00
2018-03-04T05:49:52.258Z,32.90
2018-03-04T05:50:52.267Z,32.90
2018-03-04T05:51:52.286Z,32.90
2018-03-04T05:52:52.296Z,32.80
2018-03-04T05:53:52.315Z,33.50
2018-03-04T05:54:52.327Z,32.70
2018-03-04T05:55:52.334Z,32.10
2018-03-04T05:56:52.346Z,33.20
2018-03-04T05:57:52.357Z,32.90
2018-03-04T05:58:52.365Z,32.80
2018-03-04T05:59:52.392Z,33.80
2018-03-04T06:00:52.403Z,34.40
2018-03-04T06:01:52.403Z,34.40
2018-03-04T06:02:52.412Z,33.70
2018-03-04T06:03:52.427Z,33.40
2018-03-04T06:04:52.443Z,33.20
2018-03-04T06:05:52.453Z,33.00
2018-03-04T06:06:52.465Z,33.70
2018-03-04T06:07:52.475Z,33.30
2018-03-04T06:08:52.486Z,33.60
2018-03-04T06:09:52.502Z,32.90
2018-03-04T06:10:52.512Z,34.10
2018-03-04T06:11:52.524Z,33.40
2018-03-04T06:12:52.533Z,33.10
2018-03-04T06:13:52.548Z,33.30
2018-03-04T06:14:52.558Z,33.70
2018-03-04T06:15:52.571Z,33.10
2018-03-04T06:16:52.582Z,34.00
2018-03-04T06:17:52.593Z,33.20
2018-03-04T06:18:52.607Z,33.50
2018-03-04T06:19:52.620Z,34.00
2018-03-04T06:20:52.631Z,33.50
2018-03-04T06:21:52.641Z,33.00
2018-03-04T06:22:52.660Z,33.70
2018-03-04T06:23:52.671Z,32.80
2018-03-04T06:24:52.681Z,34.70
2018-03-04T06:25:52.691Z,32.50
2018-03-04T06:26:52.706Z,33.80
2018-03-04T06:27:52.716Z,32.90
2018-03-04T06:28:52.727Z,33.40
2018-03-04T06:29:52.740Z,33.10
2018-03-04T06:30:52.752Z,32.80
2018-03-04T06:31:52.768Z,32.80
2018-03-04T06:32:52.776Z,33.80
2018-03-04T06:33:52.785Z,32.70
2018-03-04T06:34:52.804Z,34.30
2018-03-04T06:35:52.814Z,32.50
2018-03-04T06:36:52.820Z,32.90
2018-03-04T06:37:52.836Z,33.10
2018-03-04T06:38:52.857Z,33.30
2018-03-04T06:39:52.860Z,32.80
2018-03-04T06:40:52.875Z,33.30
2018-03-04T06:41:52.884Z,34.30
2018-03-04T06:42:52.902Z,33.10
2018-03-04T06:43:52.908Z,33.60
2018-03-04T06:44:52.921Z,33.80
2018-03-04T06:45:52.937Z,33.30
2018-03-04T06:46:52.944Z,34.70
2018-03-04T06:47:52.956Z,32.60
2018-03-04T06:48:52.969Z,33.70
2018-03-04T06:49:52.983Z,34.10
2018-03-04T06:50:52.998Z,33.60
2018-03-04T06:51:53.015Z,33.50
2018-03-04T06:52:53.016Z,34.10
2018-03-04T06:53:53.037Z,34.80
2018-03-04T06:54:53.040Z,33.70
2018-03-04T06:55:53.058Z,33.20
2018-03-04T06:56:53.067Z,33.90
2018-03-04T06:57:53.095Z,33.90
2018-03-04T06:58:53.092Z,33.20
2018-03-04T06:59:53.100Z,34.30
2018-03-04T07:00:53.120Z,33.60
2018-03-04T07:01:53.130Z,34.00
2018-03-04T07:02:53.140Z,33.50
2018-03-04T07:03:53.154Z,33.50
2018-03-04T07:04:53.206Z,33.30
2018-03-04T07:05:53.183Z,33.00
2018-03-04T07:06:53.187Z,34.20
2018-03-04T07:07:53.202Z,33.60
2018-03-04T07:08:53.219Z,32.80
2018-03-04T07:09:53.231Z,33.50
2018-03-04T07:10:53.241Z,34.20
2018-03-04T07:11:53.254Z,33.30
2018-03-04T07:12:53.270Z,33.70
2018-03-04T07:13:53.280Z,33.30
2018-03-04T07:14:53.292Z,33.60
2018-03-04T07:15:53.305Z,34.70
2018-03-04T07:16:53.324Z,33.10
2018-03-04T07:17:53.327Z,33.60
2018-03-04T07:18:53.343Z,33.90
2018-03-04T07:19:53.357Z,33.30
2018-03-04T07:20:53.373Z,32.80
2018-03-04T07:21:53.381Z,33.70
2018-03-04T07:22:53.393Z,32.70
2018-03-04T07:23:53.409Z,34.00
2018-03-04T07:24:53.421Z,33.40
2018-03-04T07:25:53.433Z,34.00
2018-03-04T07:26:53.447Z,33.30
2018-03-04T07:27:53.464Z,34.20
2018-03-04T07:28:53.471Z,33.70
2018-03-04T07:29:53.492Z,33.60
2018-03-04T07:30:53.498Z,33.50
2018-03-04T07:31:53.512Z,33.40
2018-03-04T07:32:53.527Z,33.50
2018-03-04T07:33:53.536Z,33.10
2018-03-04T07:34:53.556Z,33.40
2018-03-04T07:35:53.566Z,33.90
2018-03-04T07:36:53.577Z,34.80
2018-03-04T07:37:53.596Z,34.10
2018-03-04T07:38:53.605Z,34.40
2018-03-04T07:39:53.615Z,34.90
2018-03-04T07:40:53.630Z,34.20
2018-03-04T07:41:53.645Z,35.30
2018-03-04T07:42:53.654Z,34.40
2018-03-04T07:43:53.674Z,33.80
2018-03-04T07:44:53.685Z,33.20
2018-03-04T07:45:53.695Z,34.10
2018-03-04T07:46:53.718Z,33.30
2018-03-04T07:47:53.728Z,34.20
2018-03-04T07:48:53.744Z,34.80
2018-03-04T07:49:53.749Z,35.10
2018-03-04T07:50:53.769Z,34.40
2018-03-04T07:51:53.784Z,34.80
2018-03-04T07:52:53.790Z,34.20
2018-03-04T07:53:53.805Z,33.50
2018-03-04T07:54:53.817Z,33.70
2018-03-04T07:55:53.835Z,34.50
2018-03-04T07:56:53.845Z,33.60
2018-03-04T07:57:53.860Z,33.50
2018-03-04T07:58:53.878Z,34.80
2018-03-04T07:59:53.885Z,35.10
2018-03-04T08:00:53.917Z,35.90
2018-03-04T08:01:53.915Z,34.20
2018-03-04T08:02:53.924Z,35.10
2018-03-04T08:03:53.943Z,35.00
2018-03-04T08:04:53.956Z,34.30
2018-03-04T08:05:53.974Z,35.00
2018-03-04T08:06:53.984Z,34.50
2018-03-04T08:07:53.996Z,35.30
2018-03-04T08:08:54.019Z,35.60
2018-03-04T08:09:54.023Z,34.10
2018-03-04T08:10:54.038Z,33.60
2018-03-04T08:11:54.051Z,34.50
2018-03-04T08:12:54.068Z,34.70
2018-03-04T08:13:54.079Z,34.60
2018-03-04T08:14:54.094Z,34.70
2018-03-04T08:15:54.109Z,34.80
2018-03-04T08:16:54.129Z,35.70
2018-03-04T08:17:54.145Z,35.80
2018-03-04T08:18:54.156Z,35.10
2018-03-04T08:19:54.173Z,35.80
2018-03-04T08:20:54.184Z,35.30
2018-03-04T08:21:54.199Z,35.30
2018-03-04T08:22:54.209Z,35.20
2018-03-04T08:23:54.223Z,34.90
2018-03-04T08:24:54.241Z,34.90
2018-03-04T08:25:54.257Z,35.10
2018-03-04T08:26:54.270Z,34.80
2018-03-04T08:27:54.292Z,35.20
2018-03-04T08:28:54.297Z,34.90
2018-03-04T08:29:54.313Z,35.80
2018-03-04T08:30:54.336Z,35.10
2018-03-04T08:31:54.342Z,35.30
2018-03-04T08:32:54.358Z,34.90
2018-03-04T08:33:54.369Z,35.10
2018-03-04T08:34:54.385Z,34.70
2018-03-04T08:35:54.398Z,34.60
2018-03-04T08:36:54.418Z,35.50
2018-03-04T08:37:54.432Z,35.60
2018-03-04T08:38:54.452Z,35.00
2018-03-04T08:39:54.465Z,34.80
2018-03-04T08:40:54.472Z,34.80
2018-03-04T08:41:54.487Z,36.90
2018-03-04T08:42:54.502Z,35.80
2018-03-04T08:43:54.529Z,35.50
2018-03-04T08:44:54.539Z,35.30
2018-03-04T08:45:54.546Z,35.80
2018-03-04T08:46:54.565Z,35.80
2018-03-04T08:47:54.581Z,35.90
2018-03-04T08:48:54.591Z,36.20
2018-03-04T08:49:54.611Z,35.30
2018-03-04T08:50:54.627Z,35.20
2018-03-04T08:51:54.637Z,35.20
2018-03-04T08:52:54.648Z,36.10
2018-03-04T08:53:54.670Z,36.20
2018-03-04T08:54:54.706Z,36.30
2018-03-04T08:55:54.695Z,36.00
2018-03-04T08:56:54.711Z,36.20
2018-03-04T08:57:54.732Z,35.80
2018-03-04T08:58:54.745Z,36.20
2018-03-04T08:59:54.759Z,36.40
2018-03-04T09:00:54.772Z,36.20
2018-03-04T09:01:54.791Z,36.40
2018-03-04T09:02:54.800Z,35.90
2018-03-04T09:03:54.816Z,36.10
2018-03-04T09:04:54.835Z,37.10
2018-03-04T09:05:54.852Z,36.80
2018-03-04T09:06:54.860Z,36.50
2018-03-04T09:07:54.880Z,36.60
2018-03-04T09:08:54.890Z,35.90
2018-03-04T09:09:54.911Z,37.10
2018-03-04T09:10:54.925Z,37.40
2018-03-04T09:11:54.944Z,37.10
2018-03-04T09:12:54.955Z,36.30
2018-03-04T09:13:54.967Z,36.20
2018-03-04T09:14:54.988Z,37.00
2018-03-04T09:15:55.000Z,37.50
2018-03-04T09:16:55.023Z,36.80
2018-03-04T09:17:55.034Z,37.40
2018-03-04T09:18:55.049Z,36.80
2018-03-04T09:19:55.064Z,37.10
2018-03-04T09:20:55.075Z,36.50
2018-03-04T09:21:55.089Z,37.00
2018-03-04T09:22:55.105Z,36.80
2018-03-04T09:23:55.120Z,37.40
2018-03-04T09:24:55.143Z,37.10
2018-03-04T09:25:55.150Z,37.80
2018-03-04T09:26:55.173Z,37.90
2018-03-04T09:27:55.184Z,37.40
2018-03-04T09:28:55.198Z,37.60
2018-03-04T09:29:55.211Z,37.50
2018-03-04T09:30:55.224Z,37.90
2018-03-04T09:31:55.243Z,37.90
2018-03-04T09:32:55.269Z,37.40
2018-03-04T09:33:55.276Z,37.70
2018-03-04T09:34:55.288Z,37.80
2018-03-04T09:35:55.306Z,37.80
2018-03-04T09:36:55.317Z,37.60
2018-03-04T09:37:55.332Z,38.80
2018-03-04T09:38:55.356Z,37.90
2018-03-04T09:39:55.372Z,37.40
2018-03-04T09:40:55.382Z,37.30
2018-03-04T09:41:55.397Z,36.60
2018-03-04T09:42:55.413Z,38.70
2018-03-04T09:43:55.433Z,38.10
2018-03-04T09:44:55.448Z,38.40
2018-03-04T09:45:55.463Z,37.70
2018-03-04T09:46:55.473Z,39.00
2018-03-04T09:47:55.487Z,39.40
2018-03-04T09:48:55.502Z,38.90
2018-03-04T09:49:55.519Z,38.40
2018-03-04T09:50:55.532Z,38.90
2018-03-04T09:51:55.551Z,39.80
2018-03-04T09:52:55.573Z,38.60
2018-03-04T09:53:55.578Z,40.60
2018-03-04T09:54:55.598Z,38.10
2018-03-04T09:55:55.614Z,40.30
2018-03-04T09:56:55.636Z,39.70
2018-03-04T09:57:55.642Z,38.60
2018-03-04T09:58:55.662Z,39.60
2018-03-04T09:59:55.673Z,39.60
2018-03-04T10:00:55.688Z,39.80
2018-03-04T10:01:55.711Z,40.30
2018-03-04T10:02:55.723Z,40.40
2018-03-04T10:03:55.737Z,40.10
2018-03-04T10:04:55.752Z,40.10
2018-03-04T10:05:55.777Z,41.30
2018-03-04T10:06:55.787Z,40.10
2018-03-04T10:07:55.805Z,39.90
2018-03-04T10:08:55.824Z,39.40
2018-03-04T10:09:55.838Z,40.30
2018-03-04T10:10:55.855Z,40.20
2018-03-04T10:11:55.870Z,39.70
2018-03-04T10:12:55.886Z,39.90
2018-03-04T10:13:55.901Z,41.00
2018-03-04T10:14:55.922Z,39.80
2018-03-04T10:15:55.938Z,40.30
2018-03-04T10:16:55.951Z,39.80
2018-03-04T10:17:55.965Z,41.60
2018-03-04T10:18:55.981Z,40.70
2018-03-04T10:19:56.003Z,40.90
2018-03-04T10:20:56.019Z,41.80
2018-03-04T10:21:56.035Z,40.30
2018-03-04T10:22:56.054Z,40.30
2018-03-04T10:23:56.069Z,41.10
2018-03-04T10:24:56.084Z,40.20
2018-03-04T10:25:56.107Z,40.10
2018-03-04T10:26:56.113Z,40.90
2018-03-04T10:27:56.132Z,41.40
2018-03-04T10:28:56.156Z,41.20
2018-03-04T10:29:56.168Z,40.30
2018-03-04T10:30:56.184Z,40.00
2018-03-04T10:31:56.200Z,40.80
2018-03-04T10:32:56.216Z,39.70
2018-03-04T10:33:56.235Z,40.70
2018-03-04T10:34:56.250Z,39.60
2018-03-04T10:35:56.266Z,40.00
2018-03-04T10:36:56.282Z,40.60
2018-03-04T10:37:56.300Z,40.50
2018-03-04T10:38:56.325Z,41.70
2018-03-04T10:39:56.334Z,40.70
2018-03-04T10:40:56.357Z,40.30
2018-03-04T10:41:56.370Z,40.10
2018-03-04T10:42:56.384Z,40.50
2018-03-04T10:43:56.401Z,41.60
2018-03-04T10:44:56.424Z,42.30
2018-03-04T10:45:56.453Z,41.30
2018-03-04T10:46:56.457Z,41.20
2018-03-04T10:47:56.473Z,41.70
2018-03-04T10:48:56.494Z,41.30
2018-03-04T10:49:56.508Z,41.50
2018-03-04T10:50:56.524Z,40.40
2018-03-04T10:51:56.545Z,40.90
2018-03-04T10:52:56.563Z,41.00
2018-03-04T10:53:56.580Z,42.00
2018-03-04T10:54:56.594Z,42.10
2018-03-04T10:55:56.610Z,41.30
2018-03-04T10:56:56.625Z,40.50
2018-03-04T10:57:56.647Z,40.50
2018-03-04T10:58:56.667Z,41.60
2018-03-04T10:59:56.680Z,41.60
2018-03-04T11:00:56.699Z,41.50
2018-03-04T11:01:56.712Z,41.00
2018-03-04T11:02:56.732Z,42.50
2018-03-04T11:03:56.810Z,40.70
2018-03-04T11:04:56.770Z,41.10
2018-03-04T11:05:56.785Z,41.30
2018-03-04T11:06:56.805Z,41.90
2018-03-04T11:07:56.821Z,42.40
2018-03-04T11:08:56.839Z,41.60
2018-03-04T11:09:56.867Z,41.90
2018-03-04T11:10:56.873Z,42.00
2018-03-04T11:11:56.888Z,42.50
2018-03-04T11:12:56.916Z,41.80
2018-03-04T11:13:56.922Z,42.50
2018-03-04T11:14:56.941Z,43.00
2018-03-04T11:15:56.956Z,43.00
2018-03-04T11:16:56.985Z,41.80
2018-03-04T11:17:56.993Z,43.00
2018-03-04T11:18:57.015Z,42.40
2018-03-04T11:19:57.031Z,42.40
2018-03-04T11:20:57.050Z,42.40
2018-03-04T11:21:57.077Z,41.40
2018-03-04T11:22:57.084Z,42.00
2018-03-04T11:23:57.103Z,43.20
2018-03-04T11:24:57.130Z,42.50
2018-03-04T11:25:57.132Z,42.40
2018-03-04T11:26:57.155Z,41.80
2018-03-04T11:27:57.176Z,41.20
2018-03-04T11:28:57.197Z,42.10
2018-03-04T11:29:57.206Z,42.60
2018-03-04T11:30:57.220Z,42.10
2018-03-04T11:31:57.242Z,42.50
2018-03-04T11:32:57.261Z,41.90
2018-03-04T11:33:57.298Z,42.90
2018-03-04T11:34:57.311Z,42.80
2018-03-04T11:35:57.315Z,42.30
2018-03-04T11:36:57.341Z,42.60
2018-03-04T11:37:57.355Z,42.00
2018-03-04T11:38:57.372Z,41.70
2018-03-04T11:39:57.397Z,43.20
2018-03-04T11:40:57.416Z,42.60
2018-03-04T11:41:57.436Z,42.30
2018-03-04T11:42:57.451Z,42.40
2018-03-04T11:43:57.474Z,43.00
2018-03-04T11:44:57.491Z,43.10
2018-03-04T11:45:57.519Z,41.90
2018-03-04T11:46:57.535Z,43.50
2018-03-04T11:47:57.551Z,43.50
2018-03-04T11:48:57.569Z,42.90
2018-03-04T11:49:57.592Z,43.40
2018-03-04T11:50:57.609Z,43.20
2018-03-04T11:51:57.628Z,43.70
2018-03-04T11:52:57.645Z,42.70
2018-03-04T11:53:57.667Z,43.20
2018-03-04T11:54:57.689Z,42.90
2018-03-04T11:55:57.713Z,42.70
2018-03-04T11:56:57.734Z,42.10
2018-03-04T11:57:57.748Z,43.00
2018-03-04T11:58:57.764Z,43.10
2018-03-04T11:59:57.793Z,43.40
2018-03-04T12:00:57.807Z,43.90
2018-03-04T12:01:57.834Z,43.30
2018-03-04T12:02:57.854Z,42.70
2018-03-04T12:03:57.916Z,44.10
2018-03-04T12:04:57.889Z,44.10
2018-03-04T12:05:57.938Z,42.80
2018-03-04T12:06:57.920Z,41.60
2018-03-04T12:07:57.954Z,43.10
2018-03-04T12:08:57.963Z,43.50
2018-03-04T12:09:57.987Z,43.60
2018-03-04T12:10:57.998Z,43.40
2018-03-04T12:11:58.018Z,42.60
2018-03-04T12:12:58.043Z,42.30
2018-03-04T12:13:58.069Z,42.90
2018-03-04T12:14:58.087Z,43.20
2018-03-04T12:15:58.100Z,43.90
2018-03-04T12:16:58.121Z,42.30
2018-03-04T12:17:58.138Z,42.70
2018-03-04T12:18:58.161Z,43.90
2018-03-04T12:19:58.182Z,43.30
2018-03-04T12:20:58.206Z,42.60
2018-03-04T12:21:58.218Z,42.10
2018-03-04T12:22:58.241Z,42.10
2018-03-04T12:23:58.277Z,42.60
2018-03-04T12:24:58.277Z,42.60
2018-03-04T12:25:58.306Z,42.70
2018-03-04T12:26:58.322Z,43.00
2018-03-04T12:27:58.358Z,42.50
2018-03-04T12:28:58.382Z,43.20
2018-03-04T12:29:58.391Z,44.00
2018-03-04T12:30:58.421Z,44.30
2018-03-04T12:31:58.441Z,43.40
2018-03-04T12:32:58.461Z,43.30
2018-03-04T12:33:58.487Z,43.70
2018-03-04T12:34:58.515Z,43.50
2018-03-04T12:35:58.539Z,43.60
2018-03-04T12:36:58.576Z,42.50
2018-03-04T12:37:58.586Z,43.20
2018-03-04T12:38:58.620Z,44.50
2018-03-04T12:39:58.640Z,43.50
2018-03-04T12:40:58.671Z,44.70
2018-03-04T12:41:58.695Z,43.50
2018-03-04T12:42:58.718Z,43.60
2018-03-04T12:43:58.750Z,44.00
2018-03-04T12:44:58.771Z,44.90
2018-03-04T12:45:58.803Z,44.30
2018-03-04T12:46:58.831Z,45.10
2018-03-04T12:47:58.846Z,44.90
2018-03-04T12:48:58.874Z,44.60
2018-03-04T12:49:58.904Z,43.90
2018-03-04T12:50:58.934Z,44.20
2018-03-04T12:51:58.957Z,43.90
2018-03-04T12:52:58.986Z,44.00